Terminal Aerodrome Forecast
Issued by NWS

Home | Current Version | Previous Version | Text Only | Print | Product List | Glossary On
Versions: 1 2 3 4 5 6 7 8 9 10 11 12 13 14 15
000
FTUS46 KMTR 242339
TAFMRY
TAF
KMRY 242339Z 2500/2524 28011KT P6SM SCT030
     FM250400 24005KT P6SM FEW020
     FM250900 14004KT P6SM SCT020
     FM251400 VRB03KT P6SM FEW020
     FM252000 28009KT P6SM FEW025 SCT150=

USA.gov is the U.S. government's official web portal to all federal, state and local government web resources and services.